Facebook Twitter

Wetterstation Reutte

Messwerte
  Temperatur Wetter Niederschlag Luftdruck Wind
So, 05:00 Uhr 1° - 0 mm 1026.4 hPa 4 km/h SW
So, 04:00 Uhr 1° - 0 mm 1026.6 hPa 4 km/h S
So, 03:00 Uhr 1° - 0 mm 1026.7 hPa 0 km/h S
So, 02:00 Uhr 1° - 0 mm 1027.4 hPa 0 km/h S
So, 01:00 Uhr 2° - 0 mm 1027.1 hPa 0 km/h S
So, 00:00 Uhr 4° - 0 mm 1026.3 hPa 7 km/h S
Sa, 23:00 Uhr 3° - 0 mm 1026.4 hPa 4 km/h S
Sa, 22:00 Uhr 4° - 0 mm 1025.5 hPa 4 km/h N
Sa, 21:00 Uhr 7° - 0 mm 1023.6 hPa 4 km/h NO
Sa, 20:00 Uhr 9° - 0 mm 1022.1 hPa 11 km/h NW
Sa, 19:00 Uhr 10° - 0 mm 1021 hPa 18 km/h NW
Sa, 18:00 Uhr 12° - 0 mm 1020.2 hPa 22 km/h N
Sa, 17:00 Uhr 12° - 0 mm 1020.1 hPa 25 km/h N
Sa, 16:00 Uhr 13° - 0 mm 1020 hPa 22 km/h NW
Sa, 15:00 Uhr 12° - 0 mm 1020.2 hPa 22 km/h NW
Sa, 14:00 Uhr 11° - 0 mm 1020.7 hPa 22 km/h N
Sa, 13:00 Uhr 11° - 0 mm 1021.1 hPa 14 km/h N
Sa, 12:00 Uhr 9° - 0 mm 1022 hPa 18 km/h N
Sa, 11:00 Uhr 8° - 0 mm 1022.7 hPa 0 km/h N
Sa, 10:00 Uhr 5° - 0 mm 1023.7 hPa 0 km/h N

Alle Zeitangaben MESZ